createdAt,value
2023-03-31T00:01:12.064Z,1.90
2023-03-31T00:03:44.399Z,2.10
2023-03-31T00:06:18.224Z,2.13
2023-03-31T00:08:51.603Z,1.63
2023-03-31T00:11:21.914Z,2.40
2023-03-31T00:13:51.899Z,2.43
2023-03-31T00:16:20.749Z,2.10
2023-03-31T00:18:51.013Z,2.10
2023-03-31T00:21:29.730Z,2.27
2023-03-31T00:24:01.153Z,2.13
2023-03-31T00:26:30.899Z,2.10
2023-03-31T00:29:01.187Z,2.30
2023-03-31T00:31:30.037Z,2.57
2023-03-31T00:33:59.029Z,2.17
2023-03-31T00:36:28.298Z,2.13
2023-03-31T00:39:00.329Z,2.20
2023-03-31T00:41:29.449Z,3.00
2023-03-31T00:44:08.505Z,2.50
2023-03-31T00:46:40.055Z,2.20
2023-03-31T00:49:13.926Z,2.20
2023-03-31T00:51:43.242Z,2.53
2023-03-31T00:54:11.785Z,2.67
2023-03-31T00:56:43.136Z,3.03
2023-03-31T00:59:14.487Z,3.40
2023-03-31T01:01:45.663Z,2.30
2023-03-31T01:04:16.702Z,2.30
2023-03-31T01:06:51.937Z,2.80
2023-03-31T01:09:22.754Z,2.50
2023-03-31T01:11:51.558Z,3.10
2023-03-31T01:14:21.650Z,3.97
2023-03-31T01:16:53.463Z,2.50
2023-03-31T01:19:27.591Z,2.63
2023-03-31T01:22:46.118Z,3.37
2023-03-31T01:25:42.690Z,2.67
2023-03-31T01:28:23.004Z,2.60
2023-03-31T01:31:38.701Z,2.90
2023-03-31T01:34:41.491Z,3.23
2023-03-31T01:37:46.023Z,3.30
2023-03-31T01:40:42.540Z,2.60
2023-03-31T01:43:15.490Z,2.30
2023-03-31T01:45:53.113Z,2.77
2023-03-31T01:48:23.652Z,2.50
2023-03-31T01:50:57.622Z,2.83
2023-03-31T01:53:31.121Z,3.10
2023-03-31T01:56:06.381Z,2.77
2023-03-31T01:58:37.872Z,2.60
2023-03-31T02:01:11.542Z,2.73
2023-03-31T02:03:42.840Z,2.70
2023-03-31T02:06:13.831Z,2.80
2023-03-31T02:08:46.220Z,3.00
2023-03-31T02:11:16.825Z,2.80
2023-03-31T02:13:47.386Z,2.57
2023-03-31T02:16:22.048Z,2.80
2023-03-31T02:18:52.942Z,3.40
2023-03-31T02:21:22.754Z,2.67
2023-03-31T02:23:52.497Z,2.03
2023-03-31T02:26:25.403Z,2.40
2023-03-31T02:28:54.124Z,3.07
2023-03-31T02:31:28.875Z,2.60
2023-03-31T02:33:57.559Z,2.43
2023-03-31T02:36:26.471Z,2.30
2023-03-31T02:38:58.009Z,2.30
2023-03-31T02:41:28.007Z,2.63
2023-03-31T02:43:56.676Z,2.03
2023-03-31T02:46:25.807Z,2.20
2023-03-31T02:48:57.231Z,2.50
2023-03-31T02:52:03.472Z,1.93
2023-03-31T02:54:47.301Z,2.47
2023-03-31T02:57:37.487Z,1.73
2023-03-31T03:00:13.978Z,2.30
2023-03-31T03:02:53.364Z,1.90
2023-03-31T03:05:28.333Z,1.80
2023-03-31T03:08:01.506Z,1.67
2023-03-31T03:10:36.673Z,2.47
2023-03-31T03:13:11.179Z,2.30
2023-03-31T03:15:44.305Z,1.97
2023-03-31T03:18:13.255Z,2.20
2023-03-31T03:20:48.466Z,2.20
2023-03-31T03:23:17.949Z,2.13
2023-03-31T03:25:47.939Z,2.00
2023-03-31T03:28:18.164Z,2.40
2023-03-31T03:30:47.250Z,2.40
2023-03-31T03:33:17.253Z,2.27
2023-03-31T03:35:46.181Z,2.50
2023-03-31T03:38:14.850Z,2.37
2023-03-31T03:40:43.454Z,1.67
2023-03-31T03:43:12.089Z,1.90
2023-03-31T03:45:42.037Z,2.20
2023-03-31T03:48:10.708Z,1.90
2023-03-31T03:50:39.338Z,2.50
2023-03-31T03:53:08.050Z,2.07
2023-03-31T03:55:36.647Z,2.50
2023-03-31T03:58:05.528Z,2.13
2023-03-31T04:00:34.284Z,1.87
2023-03-31T04:03:04.412Z,1.97
2023-03-31T04:05:33.047Z,1.73
2023-03-31T04:08:01.613Z,1.73
2023-03-31T04:10:30.250Z,1.87
2023-03-31T04:12:58.799Z,2.27
2023-03-31T04:15:27.497Z,2.20
2023-03-31T04:17:58.172Z,2.00
2023-03-31T04:20:31.449Z,3.00
2023-03-31T04:23:00.257Z,2.10
2023-03-31T04:25:30.694Z,2.33
2023-03-31T04:27:59.485Z,2.27
2023-03-31T04:30:31.571Z,2.30
2023-03-31T04:33:01.623Z,1.97
2023-03-31T04:35:42.871Z,2.70
2023-03-31T04:38:11.588Z,2.60
2023-03-31T04:40:41.459Z,2.70
2023-03-31T04:43:10.106Z,2.77
2023-03-31T04:45:38.841Z,2.65
2023-03-31T04:48:07.909Z,2.77
2023-03-31T04:50:37.930Z,3.00
2023-03-31T04:53:07.074Z,2.03
2023-03-31T04:55:36.320Z,2.20
2023-03-31T04:58:05.227Z,2.70
2023-03-31T05:00:33.863Z,2.77
2023-03-31T05:03:03.313Z,2.93
2023-03-31T05:05:32.041Z,3.03
2023-03-31T05:08:02.059Z,2.43
2023-03-31T05:10:31.331Z,3.10
2023-03-31T05:13:00.071Z,3.90
2023-03-31T05:15:28.707Z,2.87
2023-03-31T05:17:59.004Z,2.90
2023-03-31T05:20:27.681Z,2.90
2023-03-31T05:22:56.315Z,3.70
2023-03-31T05:25:29.334Z,3.40
2023-03-31T05:27:58.086Z,3.10
2023-03-31T05:30:27.438Z,3.30
2023-03-31T05:32:56.063Z,3.50
2023-03-31T05:35:25.225Z,3.83
2023-03-31T05:37:53.882Z,4.30
2023-03-31T05:40:22.489Z,3.63
2023-03-31T05:42:52.420Z,4.63
2023-03-31T05:45:21.207Z,4.30
2023-03-31T05:47:49.848Z,4.17
2023-03-31T05:50:18.693Z,4.30
2023-03-31T05:52:47.265Z,3.80
2023-03-31T05:55:16.017Z,4.33
2023-03-31T05:57:44.607Z,4.00
2023-03-31T06:00:16.335Z,4.40
2023-03-31T06:02:45.045Z,4.40
2023-03-31T06:05:13.825Z,4.30
2023-03-31T06:07:42.464Z,4.53
2023-03-31T06:10:11.498Z,4.87
2023-03-31T06:12:40.283Z,5.20
2023-03-31T06:15:09.597Z,4.03
2023-03-31T06:17:39.713Z,4.70
2023-03-31T06:20:20.434Z,3.73
2023-03-31T06:22:56.239Z,5.00
2023-03-31T06:25:24.945Z,4.47
2023-03-31T06:27:53.746Z,4.90
2023-03-31T06:30:22.590Z,4.87
2023-03-31T06:32:52.574Z,4.50
2023-03-31T06:35:21.224Z,5.80
2023-03-31T06:37:49.902Z,4.90
2023-03-31T06:40:18.921Z,4.73
2023-03-31T06:42:47.522Z,4.83
2023-03-31T06:45:16.282Z,5.27
2023-03-31T06:47:45.016Z,4.23
2023-03-31T06:50:15.120Z,4.30
2023-03-31T06:52:43.745Z,4.13
2023-03-31T06:55:13.143Z,5.27
2023-03-31T06:57:41.785Z,5.60
2023-03-31T07:00:11.449Z,6.40
2023-03-31T07:02:40.163Z,6.30
2023-03-31T07:05:09.054Z,5.30
2023-03-31T07:07:39.054Z,6.37
2023-03-31T07:10:08.465Z,5.07
2023-03-31T07:12:37.118Z,6.23
2023-03-31T07:15:06.896Z,5.50
2023-03-31T07:17:37.488Z,4.60
2023-03-31T07:20:10.706Z,5.00
2023-03-31T07:22:41.612Z,5.20
2023-03-31T07:25:11.704Z,3.87
2023-03-31T07:27:41.179Z,3.90
2023-03-31T07:30:11.570Z,3.90
2023-03-31T07:32:41.314Z,3.93
2023-03-31T07:35:11.432Z,3.07
2023-03-31T07:37:43.334Z,3.00
2023-03-31T07:40:13.554Z,2.40
2023-03-31T07:42:43.118Z,2.23
2023-03-31T07:45:12.077Z,2.03
2023-03-31T07:47:41.247Z,2.67
2023-03-31T07:50:11.000Z,2.60
2023-03-31T07:52:41.116Z,1.40
2023-03-31T07:55:10.502Z,1.40
2023-03-31T07:57:40.484Z,1.40
2023-03-31T08:00:12.264Z,1.40
2023-03-31T08:02:42.871Z,1.67
2023-03-31T08:05:12.480Z,1.37
2023-03-31T08:07:44.456Z,1.70
2023-03-31T08:10:17.499Z,1.40
2023-03-31T08:12:46.309Z,1.20
2023-03-31T08:15:15.113Z,1.43
2023-03-31T08:17:43.851Z,1.30
2023-03-31T08:20:13.250Z,1.20
2023-03-31T08:22:43.267Z,0.97
2023-03-31T08:25:12.174Z,0.80
2023-03-31T08:27:41.854Z,1.23
2023-03-31T08:30:12.452Z,0.80
2023-03-31T08:32:41.168Z,1.10
2023-03-31T08:35:10.526Z,1.20
2023-03-31T08:37:39.834Z,1.10
2023-03-31T08:40:16.203Z,0.90
2023-03-31T08:42:47.449Z,1.10
2023-03-31T08:45:21.496Z,1.00
2023-03-31T08:47:53.526Z,1.07
2023-03-31T08:50:25.578Z,1.20
2023-03-31T08:52:58.300Z,1.03
2023-03-31T08:55:32.363Z,0.90
2023-03-31T08:58:04.641Z,1.03
2023-03-31T09:00:39.426Z,1.30
2023-03-31T09:03:15.132Z,1.03
2023-03-31T09:05:59.955Z,1.50
2023-03-31T09:08:35.318Z,0.90
2023-03-31T09:11:11.413Z,1.13
2023-03-31T09:14:19.698Z,1.20
2023-03-31T09:16:55.255Z,1.40
2023-03-31T09:19:34.173Z,1.13
2023-03-31T09:22:04.330Z,1.27
2023-03-31T09:24:36.447Z,0.97
2023-03-31T09:27:08.229Z,0.93
2023-03-31T09:29:42.587Z,1.47
2023-03-31T09:32:16.291Z,0.90
2023-03-31T09:34:45.891Z,1.07
2023-03-31T09:37:14.612Z,0.87
2023-03-31T09:39:43.481Z,1.20
2023-03-31T09:42:14.552Z,0.67
2023-03-31T09:44:45.921Z,0.93
2023-03-31T09:47:18.647Z,1.10
2023-03-31T09:49:54.172Z,1.10
2023-03-31T09:52:29.240Z,0.90
2023-03-31T09:55:00.607Z,1.10
2023-03-31T09:57:33.854Z,0.97
2023-03-31T10:00:13.518Z,1.30
2023-03-31T10:02:45.625Z,1.30
2023-03-31T10:05:27.271Z,1.30
2023-03-31T10:08:15.645Z,1.37
2023-03-31T10:10:46.354Z,1.13
2023-03-31T10:13:18.184Z,1.20
2023-03-31T10:15:46.804Z,1.13
2023-03-31T10:18:16.395Z,1.10
2023-03-31T10:20:46.521Z,1.53
2023-03-31T10:23:19.740Z,1.27
2023-03-31T10:25:48.744Z,1.70
2023-03-31T10:28:20.404Z,1.60
2023-03-31T10:30:50.824Z,1.20
2023-03-31T10:33:23.746Z,1.43
2023-03-31T10:35:57.004Z,1.30
2023-03-31T10:38:28.750Z,1.43
2023-03-31T10:40:59.057Z,2.23
2023-03-31T10:43:30.345Z,1.50
2023-03-31T10:46:01.207Z,1.10
2023-03-31T10:48:31.754Z,1.50
2023-03-31T10:51:02.201Z,1.40
2023-03-31T10:53:31.140Z,2.07
2023-03-31T10:56:10.945Z,2.03
2023-03-31T10:59:04.214Z,1.53
2023-03-31T11:01:43.178Z,1.13
2023-03-31T11:04:37.637Z,1.33
2023-03-31T11:07:10.545Z,1.27
2023-03-31T11:09:46.774Z,1.40
2023-03-31T11:12:20.670Z,1.30
2023-03-31T11:15:04.490Z,1.40
2023-03-31T11:17:41.249Z,1.87
2023-03-31T11:20:16.733Z,1.70
2023-03-31T11:22:52.469Z,1.20
2023-03-31T11:25:25.123Z,1.50
2023-03-31T11:28:02.233Z,1.87
2023-03-31T11:30:37.829Z,1.30
2023-03-31T11:33:35.132Z,0.90
2023-03-31T11:36:12.809Z,1.20
2023-03-31T11:38:58.443Z,0.90
2023-03-31T11:41:33.770Z,0.80
2023-03-31T11:44:04.621Z,1.20
2023-03-31T11:46:39.712Z,0.90
2023-03-31T11:49:15.187Z,0.60
2023-03-31T11:51:47.237Z,0.80
2023-03-31T11:54:19.231Z,0.87
2023-03-31T11:56:47.939Z,0.70
2023-03-31T11:59:17.498Z,0.70
2023-03-31T12:01:51.495Z,0.80
2023-03-31T12:04:29.326Z,0.73
2023-03-31T12:07:02.534Z,0.70
2023-03-31T12:09:36.610Z,0.70
2023-03-31T12:12:08.213Z,0.60
2023-03-31T12:14:40.986Z,0.70
2023-03-31T12:17:14.370Z,0.57
2023-03-31T12:19:47.965Z,0.50
2023-03-31T12:22:20.081Z,0.60
2023-03-31T12:24:48.794Z,1.20
2023-03-31T12:27:19.656Z,0.70
2023-03-31T12:29:54.418Z,0.60
2023-03-31T12:32:27.907Z,0.70
2023-03-31T12:35:00.702Z,0.83
2023-03-31T12:38:00.442Z,0.97
2023-03-31T12:40:37.538Z,0.60
2023-03-31T12:43:30.830Z,0.60
2023-03-31T12:46:09.297Z,0.60
2023-03-31T12:48:55.482Z,0.60
2023-03-31T12:51:40.586Z,0.73
2023-03-31T12:54:23.860Z,0.63
2023-03-31T12:57:17.319Z,0.80
2023-03-31T12:59:47.062Z,0.60
2023-03-31T13:02:23.277Z,0.50
2023-03-31T13:04:53.424Z,1.73
2023-03-31T13:07:37.243Z,0.83
2023-03-31T13:10:26.404Z,0.80
2023-03-31T13:13:01.417Z,0.90
2023-03-31T13:15:31.063Z,1.07
2023-03-31T13:18:01.226Z,1.17
2023-03-31T13:20:36.081Z,1.20
2023-03-31T13:23:17.386Z,1.23
2023-03-31T13:25:47.917Z,1.00
2023-03-31T13:28:33.146Z,1.20
2023-03-31T13:31:03.016Z,1.43
2023-03-31T13:33:43.855Z,1.37
2023-03-31T13:36:41.813Z,1.30
2023-03-31T13:39:42.496Z,1.17
2023-03-31T13:42:27.176Z,1.50
2023-03-31T13:45:06.556Z,1.40
2023-03-31T13:47:59.992Z,1.00
2023-03-31T13:50:38.969Z,1.03
2023-03-31T13:53:29.353Z,1.37
2023-03-31T13:56:16.553Z,0.60
2023-03-31T13:59:14.533Z,0.80
2023-03-31T14:02:06.573Z,0.67
2023-03-31T14:05:01.523Z,0.60
2023-03-31T14:07:33.142Z,0.80
2023-03-31T14:10:04.385Z,0.60
2023-03-31T14:12:34.489Z,0.60
2023-03-31T14:15:04.036Z,0.80
2023-03-31T14:17:35.948Z,0.50
2023-03-31T14:20:23.726Z,0.57
2023-03-31T14:23:02.353Z,0.90
2023-03-31T14:25:40.834Z,0.60
2023-03-31T14:28:22.106Z,0.70
2023-03-31T14:30:58.776Z,0.60
2023-03-31T14:33:35.062Z,0.70
2023-03-31T14:36:10.413Z,0.70
2023-03-31T14:38:39.102Z,0.60
2023-03-31T14:41:17.117Z,0.50
2023-03-31T14:43:48.891Z,0.43
2023-03-31T14:46:21.778Z,0.83
2023-03-31T14:48:52.142Z,0.90
2023-03-31T14:51:30.973Z,0.60
2023-03-31T14:53:59.718Z,0.57
2023-03-31T14:56:33.816Z,1.10
2023-03-31T14:59:02.815Z,0.70
2023-03-31T15:01:35.826Z,0.60
2023-03-31T15:04:07.791Z,1.17
2023-03-31T15:06:39.703Z,0.80
2023-03-31T15:09:10.700Z,0.60
2023-03-31T15:11:40.729Z,0.60
2023-03-31T15:14:10.887Z,1.00
2023-03-31T15:16:43.083Z,0.90
2023-03-31T15:19:16.911Z,0.80
2023-03-31T15:21:46.106Z,0.70
2023-03-31T15:24:15.498Z,0.70
2023-03-31T15:26:48.109Z,1.03
2023-03-31T15:29:19.064Z,0.70
2023-03-31T15:31:48.195Z,0.80
2023-03-31T15:34:22.393Z,0.87
2023-03-31T15:36:51.919Z,0.80
2023-03-31T15:39:20.599Z,0.83
2023-03-31T15:41:50.723Z,0.80
2023-03-31T15:44:39.767Z,0.70
2023-03-31T15:47:14.134Z,0.60
2023-03-31T15:49:50.030Z,1.00
2023-03-31T15:52:33.919Z,0.70
2023-03-31T15:55:06.622Z,1.10
2023-03-31T15:57:37.153Z,0.80
2023-03-31T16:00:08.127Z,0.80
2023-03-31T16:02:41.702Z,0.80
2023-03-31T16:05:26.831Z,0.70
2023-03-31T16:07:56.548Z,0.67
2023-03-31T16:10:25.987Z,0.93
2023-03-31T16:12:58.088Z,0.60
2023-03-31T16:15:31.785Z,0.80
2023-03-31T16:18:02.671Z,0.97
2023-03-31T16:20:37.206Z,0.80
2023-03-31T16:23:14.222Z,0.97
2023-03-31T16:25:42.925Z,2.63
2023-03-31T16:28:16.663Z,1.03
2023-03-31T16:30:46.410Z,0.73
2023-03-31T16:33:16.275Z,1.10
2023-03-31T16:35:48.812Z,0.90
2023-03-31T16:38:18.365Z,1.10
2023-03-31T16:40:48.015Z,1.00
2023-03-31T16:43:18.909Z,1.00
2023-03-31T16:45:48.782Z,0.90
2023-03-31T16:48:18.842Z,0.90
2023-03-31T16:50:48.970Z,0.80
2023-03-31T16:53:19.916Z,0.77
2023-03-31T16:55:48.767Z,0.90
2023-03-31T16:58:18.994Z,0.57
2023-03-31T17:00:48.176Z,0.70
2023-03-31T17:03:16.926Z,0.70
2023-03-31T17:05:47.430Z,0.70
2023-03-31T17:08:16.879Z,0.80
2023-03-31T17:10:52.692Z,1.43
2023-03-31T17:13:23.106Z,0.90
2023-03-31T17:15:58.343Z,1.03
2023-03-31T17:18:37.257Z,0.80
2023-03-31T17:21:07.039Z,1.00
2023-03-31T17:23:36.230Z,1.40
2023-03-31T17:26:06.227Z,0.67
2023-03-31T17:28:36.424Z,1.00
2023-03-31T17:31:12.146Z,1.80
2023-03-31T17:33:41.764Z,0.90
2023-03-31T17:36:10.952Z,0.90
2023-03-31T17:38:39.975Z,0.90
2023-03-31T17:41:10.548Z,0.77
2023-03-31T17:43:40.645Z,0.80
2023-03-31T17:46:12.675Z,0.77
2023-03-31T17:48:43.169Z,0.60
2023-03-31T17:51:14.799Z,0.60
2023-03-31T17:53:44.894Z,0.80
2023-03-31T17:56:14.754Z,0.80
2023-03-31T17:58:45.250Z,1.00
2023-03-31T18:01:14.204Z,0.90
2023-03-31T18:03:44.948Z,0.70
2023-03-31T18:06:14.945Z,0.90
2023-03-31T18:08:43.653Z,1.00
2023-03-31T18:11:13.304Z,0.80
2023-03-31T18:13:42.141Z,1.30
2023-03-31T18:16:12.946Z,1.87
2023-03-31T18:18:42.567Z,1.43
2023-03-31T18:21:13.020Z,1.40
2023-03-31T18:23:42.066Z,1.20
2023-03-31T18:26:12.424Z,1.00
2023-03-31T18:28:41.297Z,1.20
2023-03-31T18:31:12.322Z,1.30
2023-03-31T18:33:42.531Z,1.17
2023-03-31T18:36:16.862Z,1.00
2023-03-31T18:38:45.903Z,1.10
2023-03-31T18:41:17.660Z,1.20
2023-03-31T18:43:47.476Z,0.90
2023-03-31T18:46:17.567Z,0.90
2023-03-31T18:48:46.218Z,0.90
2023-03-31T18:51:15.404Z,1.10
2023-03-31T18:53:44.077Z,1.30
2023-03-31T18:56:12.917Z,1.00
2023-03-31T18:58:41.899Z,1.40
2023-03-31T19:01:10.863Z,1.43
2023-03-31T19:03:42.336Z,1.20
2023-03-31T19:06:12.202Z,1.13
2023-03-31T19:08:41.452Z,1.20
2023-03-31T19:11:12.681Z,1.20
2023-03-31T19:13:42.835Z,0.90
2023-03-31T19:16:12.151Z,1.37
2023-03-31T19:18:43.509Z,0.80
2023-03-31T19:21:12.199Z,1.20
2023-03-31T19:23:40.958Z,1.00
2023-03-31T19:26:12.877Z,1.00
2023-03-31T19:28:41.647Z,1.20
2023-03-31T19:31:11.663Z,1.40
2023-03-31T19:33:42.213Z,1.10
2023-03-31T19:36:11.337Z,0.90
2023-03-31T19:38:40.602Z,2.00
2023-03-31T19:41:10.772Z,1.00
2023-03-31T19:43:39.745Z,1.27
2023-03-31T19:46:08.517Z,0.90
2023-03-31T19:48:37.499Z,1.53
2023-03-31T19:51:08.520Z,1.33
2023-03-31T19:53:38.089Z,1.50
2023-03-31T19:56:08.968Z,0.90
2023-03-31T19:58:38.149Z,1.30
2023-03-31T20:01:08.426Z,1.37
2023-03-31T20:03:37.822Z,1.00
2023-03-31T20:06:09.685Z,1.57
2023-03-31T20:08:40.841Z,0.80
2023-03-31T20:11:12.116Z,1.10
2023-03-31T20:13:42.107Z,1.47
2023-03-31T20:16:12.758Z,0.93
2023-03-31T20:18:43.488Z,1.10
2023-03-31T20:21:15.498Z,2.93
2023-03-31T20:23:44.815Z,2.20
2023-03-31T20:26:15.372Z,1.40
2023-03-31T20:28:44.438Z,1.20
2023-03-31T20:31:18.072Z,1.07
2023-03-31T20:33:47.165Z,1.10
2023-03-31T20:36:19.072Z,0.90
2023-03-31T20:38:50.995Z,1.00
2023-03-31T20:41:21.021Z,1.43
2023-03-31T20:43:50.560Z,1.20
2023-03-31T20:46:19.598Z,1.47
2023-03-31T20:48:50.474Z,1.23
2023-03-31T20:51:22.130Z,1.30
2023-03-31T20:53:52.905Z,1.10
2023-03-31T20:56:23.723Z,1.30
2023-03-31T20:58:53.682Z,0.90
2023-03-31T21:01:22.889Z,1.10
2023-03-31T21:03:51.743Z,1.30
2023-03-31T21:06:21.877Z,0.97
2023-03-31T21:08:53.064Z,1.87
2023-03-31T21:11:22.761Z,0.90
2023-03-31T21:13:53.137Z,1.00
2023-03-31T21:16:23.076Z,1.10
2023-03-31T21:18:54.608Z,1.43
2023-03-31T21:21:25.554Z,0.97
2023-03-31T21:23:55.464Z,0.80
2023-03-31T21:26:24.917Z,1.00
2023-03-31T21:28:54.742Z,1.10
2023-03-31T21:31:24.942Z,1.23
2023-03-31T21:33:57.418Z,1.40
2023-03-31T21:36:27.787Z,1.13
2023-03-31T21:38:57.144Z,1.40
2023-03-31T21:41:28.266Z,1.33
2023-03-31T21:43:59.704Z,1.50
2023-03-31T21:46:31.835Z,0.90
2023-03-31T21:49:01.018Z,0.90
2023-03-31T21:51:31.359Z,1.00
2023-03-31T21:53:59.972Z,1.30
2023-03-31T21:56:31.934Z,1.10
2023-03-31T21:59:04.164Z,0.80
2023-03-31T22:01:33.708Z,0.83
2023-03-31T22:04:02.302Z,0.67
2023-03-31T22:06:34.448Z,1.30
2023-03-31T22:09:03.180Z,1.03
2023-03-31T22:11:31.846Z,1.03
2023-03-31T22:14:00.574Z,0.70
2023-03-31T22:16:29.231Z,0.90
2023-03-31T22:18:58.536Z,0.70
2023-03-31T22:21:28.472Z,0.60
2023-03-31T22:24:00.057Z,0.80
2023-03-31T22:26:30.119Z,0.70
2023-03-31T22:28:59.342Z,0.63
2023-03-31T22:31:28.424Z,0.80
2023-03-31T22:33:57.149Z,0.80
2023-03-31T22:36:25.726Z,0.70
2023-03-31T22:38:54.309Z,0.77
2023-03-31T22:41:24.329Z,0.90
2023-03-31T22:43:52.992Z,1.00
2023-03-31T22:46:21.683Z,0.83
2023-03-31T22:48:50.503Z,0.93
2023-03-31T22:51:19.237Z,0.90
2023-03-31T22:53:50.948Z,0.70
2023-03-31T22:56:19.804Z,0.60
2023-03-31T22:58:50.368Z,0.70
2023-03-31T23:01:20.922Z,0.80
2023-03-31T23:03:49.890Z,0.77
2023-03-31T23:06:18.823Z,0.70
2023-03-31T23:08:48.844Z,0.70
2023-03-31T23:11:18.746Z,0.63
2023-03-31T23:13:48.954Z,0.70
2023-03-31T23:16:19.246Z,0.90
2023-03-31T23:18:48.545Z,0.70
2023-03-31T23:21:19.344Z,0.60
2023-03-31T23:23:50.052Z,0.70
2023-03-31T23:26:20.028Z,0.73
2023-03-31T23:28:50.472Z,1.00
2023-03-31T23:31:20.641Z,0.60
2023-03-31T23:33:49.358Z,0.60
2023-03-31T23:36:20.844Z,0.70
2023-03-31T23:38:50.493Z,0.70
2023-03-31T23:41:19.798Z,0.73
2023-03-31T23:43:50.829Z,0.60
2023-03-31T23:46:19.693Z,0.70
2023-03-31T23:48:48.597Z,0.60
2023-03-31T23:51:17.269Z,0.60
2023-03-31T23:53:45.947Z,1.03
2023-03-31T23:56:14.829Z,0.70
2023-03-31T23:58:44.961Z,0.90
